Time;durP1;ratioP1;P1;durP2;ratioP2;P2;SDS_P1;SDS_P2;PMS_P1;PMS_P2;Temp;Humidity;BMP_temperature;BMP_pressure;BME280_temperature;BME280_humidity;BME280_pressure;Samples;Min_cycle;Max_cycle;Signal;HPM_P1;HPM_P2
2023/12/09 00:04:06;;;;;;;5.60;2.22;;;;;;;16.13;58.07;100779.91;10409207;28;20033;-58
2023/12/09 00:09:06;;;;;;;5.90;2.43;;;;;;;16.14;58.14;100775.38;10408924;28;20586;-58
2023/12/09 00:14:07;;;;;;;3.50;2.60;;;;;;;16.10;57.31;100777.78;10409596;28;20338;-59
2023/12/09 00:19:09;;;;;;;4.32;2.28;;;;;;;16.07;57.55;100773.78;10407702;28;20057;-57
2023/12/09 00:24:09;;;;;;;4.32;2.25;;;;;;;16.06;58.12;100760.69;10408866;28;20060;-57
2023/12/09 00:29:09;;;;;;;4.25;2.20;;;;;;;16.06;58.65;100772.19;10408113;28;20037;-58
2023/12/09 00:34:10;;;;;;;6.10;1.80;;;;;;;16.06;57.53;100774.06;10408555;28;20040;-58
2023/12/09 00:39:10;;;;;;;4.82;2.17;;;;;;;16.03;57.85;100777.31;10408253;28;20268;-57
2023/12/09 00:44:10;;;;;;;5.15;1.90;;;;;;;16.02;57.67;100773.81;10408749;28;20501;-58
2023/12/09 00:49:11;;;;;;;4.03;2.45;;;;;;;16.01;58.26;100788.28;10408499;28;20018;-57
2023/12/09 00:54:11;;;;;;;3.90;2.10;;;;;;;15.99;57.78;100795.00;10408336;28;20025;-57
2023/12/09 00:59:11;;;;;;;3.53;2.20;;;;;;;15.97;58.29;100792.56;10407972;28;20268;-57
2023/12/09 01:04:12;;;;;;;10.80;3.33;;;;;;;15.96;57.94;100785.63;10408194;28;20283;-57
2023/12/09 01:09:15;;;;;;;4.60;1.95;;;;;;;15.93;57.79;100783.50;10407608;28;20695;-58
2023/12/09 01:14:16;;;;;;;3.83;1.80;;;;;;;15.94;57.62;100778.94;10407796;28;20071;-57
2023/12/09 01:19:16;;;;;;;4.07;2.37;;;;;;;15.92;58.17;100768.53;10407569;28;20423;-57
2023/12/09 01:24:16;;;;;;;5.33;2.50;;;;;;;15.91;58.11;100766.13;10408301;28;20288;-57
2023/12/09 01:29:17;;;;;;;4.28;2.15;;;;;;;15.91;57.76;100768.81;10406158;28;20296;-56
2023/12/09 01:34:17;;;;;;;3.88;1.88;;;;;;;15.89;57.66;100769.09;10407761;28;20021;-58
2023/12/09 01:39:17;;;;;;;5.43;2.90;;;;;;;15.87;58.57;100767.78;10412765;28;20025;-57
2023/12/09 01:44:18;;;;;;;3.53;1.90;;;;;;;15.86;57.98;100777.66;10414663;28;20632;-58
2023/12/09 01:49:18;;;;;;;2.83;1.80;;;;;;;15.84;58.13;100770.97;10414110;28;20376;-58
2023/12/09 01:54:18;;;;;;;4.47;1.98;;;;;;;15.84;57.44;100765.63;10414239;28;20449;-57
2023/12/09 01:59:19;;;;;;;4.63;2.20;;;;;;;15.83;57.11;100756.81;10413931;28;20033;-58
2023/12/09 02:04:19;;;;;;;6.28;2.15;;;;;;;15.82;58.08;100767.78;10412721;28;20284;-58
2023/12/09 02:09:20;;;;;;;4.03;1.95;;;;;;;15.81;57.95;100755.50;10413239;28;20027;-57
2023/12/09 02:14:28;;;;;;;3.53;2.22;;;;;;;15.81;57.34;100747.47;10406577;28;20083;-58
2023/12/09 02:19:28;;;;;;;4.35;2.03;;;;;;;15.77;57.35;100734.66;10421965;28;20536;-57
2023/12/09 02:24:29;;;;;;;3.50;1.98;;;;;;;15.76;57.57;100737.63;10413404;28;20052;-57
2023/12/09 02:29:34;;;;;;;4.60;2.33;;;;;;;15.75;58.23;100734.16;10412611;28;20041;-57
2023/12/09 02:34:37;;;;;;;4.65;2.00;;;;;;;15.74;57.42;100729.84;10411871;28;20053;-58
2023/12/09 02:39:38;;;;;;;4.15;2.40;;;;;;;15.73;58.08;100736.28;10411277;28;20120;-57
2023/12/09 02:44:41;;;;;;;4.43;2.00;;;;;;;15.71;57.78;100727.72;10412414;28;20021;-57
2023/12/09 02:49:42;;;;;;;4.10;2.00;;;;;;;15.72;57.54;100717.84;10410857;28;20029;-57
2023/12/09 02:54:42;;;;;;;4.68;2.55;;;;;;;15.71;57.31;100702.88;10412444;28;20029;-58
2023/12/09 02:59:43;;;;;;;4.43;1.70;;;;;;;15.69;57.16;100700.47;10410983;28;20026;-58
2023/12/09 03:04:43;;;;;;;5.53;2.22;;;;;;;15.68;58.32;100698.09;10410507;28;20275;-57
2023/12/09 03:09:43;;;;;;;5.03;2.13;;;;;;;15.67;57.06;100693.81;10409587;28;20041;-58
2023/12/09 03:14:44;;;;;;;2.73;1.60;;;;;;;15.65;56.94;100688.75;10411273;28;20272;-58
2023/12/09 03:19:44;;;;;;;4.57;2.13;;;;;;;15.65;57.54;100671.94;10411051;28;20264;-58
2023/12/09 03:24:44;;;;;;;3.37;1.73;;;;;;;15.65;58.04;100677.28;10410727;28;20276;-57
2023/12/09 03:29:45;;;;;;;3.93;1.67;;;;;;;15.63;57.83;100676.75;10410552;28;20442;-57
2023/12/09 03:34:45;;;;;;;3.25;2.10;;;;;;;15.61;57.42;100679.66;10409911;28;20329;-58
2023/12/09 03:39:45;;;;;;;3.80;2.33;;;;;;;15.67;57.77;100689.28;10410222;28;20276;-57
2023/12/09 03:44:46;;;;;;;2.33;1.60;;;;;;;15.89;56.21;100669.38;10409731;28;20094;-56
2023/12/09 03:49:46;;;;;;;3.63;2.40;;;;;;;16.19;56.12;100673.66;10409796;28;20324;-56
2023/12/09 03:54:46;;;;;;;5.05;2.30;;;;;;;16.61;54.56;100668.47;10409397;28;20291;-58
2023/12/09 03:59:47;;;;;;;4.27;1.80;;;;;;;17.03;52.74;100668.84;10409794;28;20025;-57
2023/12/09 04:04:47;;;;;;;3.85;1.65;;;;;;;17.34;51.78;100666.59;10407824;28;20279;-57
2023/12/09 04:09:48;;;;;;;4.35;1.65;;;;;;;17.54;52.46;100659.09;10409535;28;20064;-57
2023/12/09 04:14:48;;;;;;;3.55;2.08;;;;;;;17.72;50.78;100659.41;10409177;28;20072;-57
2023/12/09 04:19:48;;;;;;;2.87;1.90;;;;;;;17.86;51.05;100641.47;10409397;28;20018;-57
2023/12/09 04:24:49;;;;;;;4.88;1.80;;;;;;;17.94;50.36;100629.28;10408571;28;20276;-57
2023/12/09 04:29:49;;;;;;;3.50;1.50;;;;;;;18.05;50.46;100626.16;10405852;28;20030;-57
2023/12/09 04:34:49;;;;;;;4.50;1.87;;;;;;;18.10;50.83;100618.00;10406309;28;20278;-57
2023/12/09 04:39:50;;;;;;;3.70;1.55;;;;;;;18.18;50.18;100629.16;10407310;28;20280;-57
2023/12/09 04:44:50;;;;;;;3.42;1.42;;;;;;;18.22;50.58;100630.97;10407086;28;20048;-58
2023/12/09 04:49:51;;;;;;;2.30;1.00;;;;;;;18.28;50.49;100624.44;10407245;28;20024;-56
2023/12/09 04:54:51;;;;;;;7.00;1.70;;;;;;;18.32;50.19;100619.25;10407103;28;20280;-58
2023/12/09 04:59:52;;;;;;;2.22;1.13;;;;;;;18.39;49.73;100615.09;10408204;28;20385;-57
2023/12/09 05:04:52;;;;;;;3.87;1.80;;;;;;;18.49;49.29;100608.75;10407963;28;20029;-58
2023/12/09 05:09:53;;;;;;;3.70;1.25;;;;;;;18.53;50.15;100592.84;10405949;28;20295;-56
2023/12/09 05:14:53;;;;;;;2.67;1.33;;;;;;;18.63;49.17;100595.31;10413734;28;20524;-58
2023/12/09 05:19:53;;;;;;;6.65;1.55;;;;;;;18.72;49.05;100584.72;10413926;28;20407;-57
2023/12/09 05:24:54;;;;;;;1.75;1.00;;;;;;;18.81;49.45;100567.56;10413364;28;20044;-57
2023/12/09 05:29:54;;;;;;;3.07;1.40;;;;;;;18.89;48.14;100572.25;10413673;28;20054;-58
2023/12/09 05:34:55;;;;;;;4.30;1.42;;;;;;;18.94;49.33;100587.47;10413289;28;20045;-57
2023/12/09 05:39:55;;;;;;;3.80;1.53;;;;;;;18.96;48.80;100585.28;10414501;28;20029;-58
2023/12/09 05:44:55;;;;;;;4.33;1.70;;;;;;;19.00;49.37;100570.16;10413020;28;20287;-58
2023/12/09 05:49:55;;;;;;;4.00;1.70;;;;;;;18.93;49.07;100564.38;10414719;28;20295;-58
2023/12/09 05:54:56;;;;;;;3.93;1.30;;;;;;;18.88;49.06;100565.28;10414186;28;20445;-56
2023/12/09 05:59:56;;;;;;;2.87;1.60;;;;;;;18.83;50.18;100576.16;10414574;28;20022;-57
2023/12/09 06:04:56;;;;;;;3.63;1.80;;;;;;;18.78;50.62;100560.13;10413751;28;20589;-57
2023/12/09 06:09:57;;;;;;;3.23;1.70;;;;;;;18.72;49.73;100547.13;10413883;28;20369;-57
2023/12/09 06:14:57;;;;;;;4.50;1.93;;;;;;;18.59;50.42;100546.00;10413537;28;20025;-58
2023/12/09 06:19:58;;;;;;;5.60;1.80;;;;;;;18.56;50.99;100538.53;10412118;28;20299;-58
2023/12/09 06:24:58;;;;;;;3.88;1.65;;;;;;;18.47;51.50;100534.94;10412661;28;20272;-57
2023/12/09 06:29:59;;;;;;;5.73;2.00;;;;;;;18.67;52.07;100521.94;10413759;28;20366;-58
2023/12/09 06:34:59;;;;;;;6.57;2.35;;;;;;;18.53;53.03;100520.34;10412612;28;20268;-57
2023/12/09 06:39:59;;;;;;;5.93;1.20;;;;;;;18.65;53.18;100513.38;10412908;28;20503;-54
2023/12/09 06:45:00;;;;;;;10.77;2.63;;;;;;;18.44;53.73;100508.69;10412585;28;20287;-55
2023/12/09 06:50:00;;;;;;;6.50;1.93;;;;;;;18.33;54.49;100492.78;10412702;28;20774;-56
2023/12/09 06:55:00;;;;;;;11.40;2.67;;;;;;;18.29;53.61;100478.41;10412319;28;20276;-55
2023/12/09 07:00:05;;;;;;;7.60;3.00;;;;;;;18.21;55.06;100465.66;10411925;28;20308;-55
2023/12/09 07:05:06;;;;;;;7.93;1.77;;;;;;;18.18;55.62;100452.84;10412061;28;20037;-58
2023/12/09 07:10:07;;;;;;;10.02;2.10;;;;;;;18.17;55.42;100453.94;10411928;28;20057;-56
2023/12/09 07:15:08;;;;;;;11.55;2.50;;;;;;;18.13;54.09;100430.72;10411571;28;20357;-56
2023/12/09 07:20:09;;;;;;;7.65;2.30;;;;;;;18.17;55.54;100435.16;10410184;28;20075;-55
2023/12/09 07:25:10;;;;;;;10.10;1.83;;;;;;;18.09;54.71;100417.06;10411072;28;20025;-54
2023/12/09 07:30:11;;;;;;;8.73;1.65;;;;;;;18.09;55.02;100404.44;10402502;28;20054;-58
2023/12/09 07:35:11;;;;;;;12.77;2.30;;;;;;;18.04;55.72;100398.41;10409616;28;20021;-55
2023/12/09 07:40:11;;;;;;;8.23;2.30;;;;;;;18.15;54.48;100404.38;10406869;28;20128;-55
2023/12/09 07:45:13;;;;;;;8.48;1.90;;;;;;;18.19;53.33;100398.09;10408727;28;20291;-53
2023/12/09 07:50:13;;;;;;;13.63;1.90;;;;;;;18.16;54.63;100387.97;10408673;28;20350;-54
2023/12/09 07:55:14;;;;;;;20.63;3.42;;;;;;;18.17;54.16;100391.44;10408788;28;20455;-54
2023/12/09 08:00:14;;;;;;;12.18;2.40;;;;;;;18.15;54.74;100389.06;10407879;28;20032;-54
2023/12/09 08:05:18;;;;;;;12.45;2.75;;;;;;;18.03;54.11;100380.72;10407483;28;20481;-52
2023/12/09 08:10:19;;;;;;;14.13;2.65;;;;;;;17.78;54.89;100387.38;10401210;28;20029;-56
2023/12/09 08:15:19;;;;;;;18.60;3.15;;;;;;;17.79;55.44;100386.28;10407531;28;20022;-55
2023/12/09 08:20:19;;;;;;;15.53;3.47;;;;;;;17.89;53.43;100385.31;10408816;28;20095;-56
2023/12/09 08:25:20;;;;;;;17.03;3.07;;;;;;;17.92;54.75;100374.75;10407481;28;20335;-55
2023/12/09 08:30:20;;;;;;;10.87;2.60;;;;;;;17.88;54.54;100360.38;10407427;28;20319;-54
2023/12/09 08:35:20;;;;;;;12.75;2.55;;;;;;;17.90;53.49;100352.03;10407830;28;20290;-55
2023/12/09 08:40:21;;;;;;;10.75;2.72;;;;;;;17.94;54.67;100345.75;10407783;28;20021;-54
2023/12/09 08:45:21;;;;;;;7.97;2.40;;;;;;;17.86;53.20;100324.19;10407314;28;20385;-54
2023/12/09 08:50:21;;;;;;;12.23;2.47;;;;;;;17.90;53.50;100309.09;10415376;28;20288;-55
2023/12/09 08:55:22;;;;;;;8.27;2.10;;;;;;;17.97;53.28;100306.78;10415699;28;20105;-54
2023/12/09 09:00:25;;;;;;;9.65;2.58;;;;;;;17.94;53.18;100307.41;10415727;28;20778;-55
2023/12/09 09:05:26;;;;;;;9.15;2.50;;;;;;;17.94;52.87;100289.41;10415518;28;20465;-54
2023/12/09 09:10:26;;;;;;;6.13;1.80;;;;;;;17.94;52.80;100278.69;10415053;28;20096;-53
2023/12/09 09:15:27;;;;;;;8.05;1.95;;;;;;;17.89;53.88;100265.41;10414492;28;20778;-54
2023/12/09 09:20:27;;;;;;;7.32;2.08;;;;;;;17.91;52.60;100239.06;10414755;28;20358;-54
2023/12/09 09:25:27;;;;;;;9.07;3.53;;;;;;;17.92;52.91;100234.50;10414315;28;20033;-55
2023/12/09 09:30:28;;;;;;;8.47;2.43;;;;;;;17.89;52.82;100224.38;10414230;28;20055;-55
2023/12/09 09:35:28;;;;;;;8.30;2.27;;;;;;;17.73;53.12;100229.25;10411187;28;20381;-56
2023/12/09 09:40:28;;;;;;;8.77;2.13;;;;;;;17.86;53.97;100216.91;10415328;28;20280;-55
2023/12/09 09:45:29;;;;;;;10.63;2.45;;;;;;;17.85;53.74;100212.66;10408796;28;20272;-57
2023/12/09 09:50:34;;;;;;;13.90;2.27;;;;;;;17.91;52.72;100193.47;10412961;28;20029;-57
2023/12/09 09:55:35;;;;;;;12.07;2.75;;;;;;;17.95;52.80;100170.31;10410657;28;20358;-55
2023/12/09 10:00:35;;;;;;;10.05;2.05;;;;;;;17.89;53.55;100160.81;10421729;28;20068;-55
2023/12/09 10:05:37;;;;;;;13.47;3.20;;;;;;;17.86;54.21;100145.28;10405180;28;20108;-55
2023/12/09 10:10:37;;;;;;;14.90;2.65;;;;;;;17.75;54.57;100120.59;10401104;28;20287;-55
2023/12/09 10:15:37;;;;;;;11.90;2.72;;;;;;;17.67;55.03;100112.47;10403526;28;20457;-55
2023/12/09 10:20:38;;;;;;;10.50;2.33;;;;;;;17.61;56.20;100114.47;10405748;28;20446;-55
2023/12/09 10:25:39;;;;;;;8.77;1.90;;;;;;;17.49;56.43;100093.56;10404768;28;20298;-53
2023/12/09 10:30:41;;;;;;;11.23;2.50;;;;;;;17.74;58.01;100072.66;10402991;28;20125;-56
2023/12/09 10:35:42;;;;;;;20.77;3.72;;;;;;;17.73;56.91;100044.25;10410232;28;20029;-54
2023/12/09 10:40:42;;;;;;;14.13;2.63;;;;;;;17.73;56.62;100031.63;10410826;28;20385;-52
2023/12/09 10:45:42;;;;;;;22.80;5.07;;;;;;;17.67;56.69;100029.38;10410053;28;20628;-49
2023/12/09 10:50:44;;;;;;;16.80;2.70;;;;;;;17.63;55.73;100023.03;10410980;28;20335;-52
2023/12/09 10:55:45;;;;;;;12.07;3.50;;;;;;;17.56;57.04;99999.34;10411038;28;20365;-52
2023/12/09 11:00:46;;;;;;;18.77;3.92;;;;;;;17.56;56.38;99977.09;10411143;28;20030;-54
2023/12/09 11:05:51;;;;;;;15.68;3.55;;;;;;;17.52;56.34;99960.81;10410477;28;20083;-51
2023/12/09 11:10:51;;;;;;;10.70;3.10;;;;;;;17.49;56.90;99938.09;10408656;28;20032;-54
2023/12/09 11:16:11;;;;;;;16.25;3.38;;;;;;;17.46;57.50;99925.34;10410439;28;20044;-53
2023/12/09 11:21:14;;;;;;;18.33;3.15;;;;;;;17.42;57.16;99918.22;10410111;28;20029;-53
2023/12/09 11:26:16;;;;;;;15.80;3.58;;;;;;;17.40;57.75;99899.75;10410242;28;20055;-52
2023/12/09 11:31:16;;;;;;;29.92;4.63;;;;;;;17.48;58.11;99871.41;10409467;28;20037;-54
2023/12/09 11:36:17;;;;;;;14.68;4.00;;;;;;;17.43;58.33;99845.56;10409106;28;20045;-55
2023/12/09 11:41:17;;;;;;;17.92;5.47;;;;;;;17.48;57.73;99815.13;10409668;28;20022;-54
2023/12/09 11:46:19;;;;;;;17.25;3.33;;;;;;;17.51;57.74;99796.53;10410125;28;20088;-55
2023/12/09 11:51:19;;;;;;;21.48;4.28;;;;;;;17.54;58.24;99801.31;10409989;28;20017;-56
2023/12/09 11:56:19;;;;;;;17.77;4.03;;;;;;;17.57;57.84;99778.44;10409943;28;20022;-54
2023/12/09 12:01:20;;;;;;;15.13;3.90;;;;;;;17.56;59.05;99760.78;10409159;28;20272;-53
2023/12/09 12:06:22;;;;;;;17.90;4.65;;;;;;;17.59;58.33;99732.56;10408782;28;20302;-54
2023/12/09 12:11:23;;;;;;;28.50;5.18;;;;;;;17.66;58.78;99727.53;10407173;28;20052;-56
2023/12/09 12:16:24;;;;;;;20.27;4.03;;;;;;;17.66;57.40;99701.53;10408033;28;20029;-57
2023/12/09 12:21:24;;;;;;;18.98;4.40;;;;;;;17.71;57.33;99671.09;10407158;28;20022;-54
2023/12/09 12:26:26;;;;;;;19.20;3.97;;;;;;;17.64;57.77;99658.16;10406283;28;20029;-55
2023/12/09 12:31:27;;;;;;;29.48;4.47;;;;;;;17.57;58.59;99630.22;10405311;28;20415;-56
2023/12/09 12:36:29;;;;;;;23.40;4.43;;;;;;;17.53;58.98;99619.38;10404765;28;20128;-54
2023/12/09 12:41:30;;;;;;;28.70;5.55;;;;;;;17.51;58.20;99584.03;10405840;28;20474;-55
2023/12/09 12:46:30;;;;;;;22.42;4.30;;;;;;;17.41;57.80;99553.00;10404896;28;20032;-55
2023/12/09 12:51:30;;;;;;;13.70;5.30;;;;;;;17.36;59.05;99544.31;10405238;28;20035;-55
2023/12/09 12:56:31;;;;;;;24.15;3.50;;;;;;;17.27;57.87;99519.41;10405445;28;20037;-55
2023/12/09 13:01:31;;;;;;;15.80;3.78;;;;;;;17.23;58.71;99493.25;10395831;28;20061;-56
2023/12/09 13:06:32;;;;;;;14.73;3.83;;;;;;;17.22;58.65;99475.59;10406381;28;20029;-55
2023/12/09 13:11:32;;;;;;;28.20;4.75;;;;;;;17.18;58.59;99472.00;10407959;28;20051;-55
2023/12/09 13:16:33;;;;;;;17.65;4.65;;;;;;;17.24;58.07;99448.50;10406240;28;20026;-56
2023/12/09 13:21:33;;;;;;;24.45;4.43;;;;;;;17.33;58.25;99440.47;10407919;28;20029;-59
2023/12/09 13:26:33;;;;;;;19.83;3.58;;;;;;;17.43;56.66;99416.00;10401338;28;20041;-58
2023/12/09 13:31:35;;;;;;;21.42;4.13;;;;;;;17.53;56.93;99402.28;10405600;28;20054;-59
2023/12/09 13:36:38;;;;;;;18.15;3.80;;;;;;;17.62;57.03;99389.63;10415705;28;20045;-56
2023/12/09 13:41:39;;;;;;;15.20;3.55;;;;;;;17.58;57.31;99361.88;10410688;28;20112;-56
2023/12/09 13:46:40;;;;;;;12.05;3.78;;;;;;;17.59;56.68;99344.69;10412817;28;20521;-56
2023/12/09 13:51:40;;;;;;;15.45;3.47;;;;;;;17.57;56.61;99311.28;10416275;28;20025;-57
2023/12/09 13:56:41;;;;;;;18.25;3.05;;;;;;;17.61;56.92;99294.22;10422867;28;20037;-56
2023/12/09 14:01:41;;;;;;;7.97;2.65;;;;;;;17.67;55.59;99276.09;10413467;28;20021;-56
2023/12/09 14:06:42;;;;;;;9.32;2.50;;;;;;;17.60;56.95;99246.31;10414362;28;20730;-57
2023/12/09 14:11:42;;;;;;;12.27;3.55;;;;;;;17.62;56.65;99252.91;10412509;28;20114;-55
2023/12/09 14:16:43;;;;;;;16.40;3.30;;;;;;;17.53;56.43;99217.38;10414045;28;20021;-56
2023/12/09 14:21:44;;;;;;;15.70;3.33;;;;;;;17.64;57.56;99194.44;10412265;28;20036;-56
2023/12/09 14:26:45;;;;;;;21.30;3.42;;;;;;;17.68;57.22;99173.13;10412541;28;20079;-56
2023/12/09 14:31:45;;;;;;;14.55;4.05;;;;;;;17.60;57.66;99166.69;10411126;28;20572;-56
2023/12/09 14:36:46;;;;;;;23.98;4.30;;;;;;;17.69;57.01;99151.38;10412192;28;20025;-54
2023/12/09 14:41:46;;;;;;;18.08;3.20;;;;;;;17.68;57.15;99119.50;10410836;28;20048;-55
2023/12/09 14:46:49;;;;;;;17.20;2.95;;;;;;;17.74;57.19;99102.13;10411990;28;20025;-55
2023/12/09 14:51:50;;;;;;;17.98;4.72;;;;;;;17.79;56.69;99075.13;10413650;28;20029;-57
2023/12/09 14:56:51;;;;;;;14.80;3.33;;;;;;;17.71;57.65;99060.69;10410302;28;20022;-57
2023/12/09 15:01:51;;;;;;;17.73;4.22;;;;;;;17.73;57.37;99063.81;10383108;28;20026;-57
2023/12/09 15:06:53;;;;;;;12.95;3.28;;;;;;;17.76;57.17;99043.63;10397755;28;20025;-57
2023/12/09 15:11:53;;;;;;;15.88;3.75;;;;;;;17.73;57.08;99036.22;10393322;28;20033;-56
2023/12/09 15:16:53;;;;;;;14.63;4.55;;;;;;;17.72;56.87;99023.94;10395963;28;20029;-57
2023/12/09 15:21:54;;;;;;;18.35;4.00;;;;;;;17.74;58.00;99019.81;10402938;28;20408;-56
2023/12/09 15:26:54;;;;;;;16.65;3.95;;;;;;;17.65;58.28;99021.78;10389504;28;20036;-57
2023/12/09 15:31:55;;;;;;;19.55;3.83;;;;;;;17.62;57.75;99002.88;10402083;28;20037;-57
2023/12/09 15:36:55;;;;;;;24.58;4.47;;;;;;;17.67;57.08;98987.38;10405351;28;20659;-57
2023/12/09 15:41:55;;;;;;;29.00;5.15;;;;;;;17.73;58.34;98982.63;10403851;28;20025;-56
2023/12/09 15:46:56;;;;;;;12.45;3.13;;;;;;;17.67;58.23;98991.97;10400355;28;20037;-56
2023/12/09 15:51:56;;;;;;;10.00;2.90;;;;;;;17.60;57.28;98981.78;10406967;28;20033;-55
2023/12/09 15:56:57;;;;;;;17.48;3.88;;;;;;;17.64;56.42;98968.47;10408939;28;20104;-56
2023/12/09 16:01:57;;;;;;;16.63;3.22;;;;;;;17.67;58.07;98947.19;10405965;28;20022;-55
2023/12/09 16:06:58;;;;;;;19.15;3.67;;;;;;;17.64;57.26;98955.88;10404339;28;20049;-56
2023/12/09 16:11:59;;;;;;;12.90;3.55;;;;;;;17.60;55.78;98941.56;10406988;28;20393;-56
2023/12/09 16:17:01;;;;;;;13.27;3.38;;;;;;;17.74;55.13;98928.66;10394971;28;20025;-56
2023/12/09 16:22:02;;;;;;;13.63;3.95;;;;;;;17.90;54.61;98918.09;10398309;28;20033;-56
2023/12/09 16:27:03;;;;;;;11.23;3.60;;;;;;;17.95;55.10;98912.50;10393969;28;20405;-56
2023/12/09 16:32:03;;;;;;;8.48;2.17;;;;;;;18.07;54.84;98880.31;10394213;28;20053;-57
2023/12/09 16:37:04;;;;;;;8.20;2.22;;;;;;;18.13;55.07;98902.34;10406278;28;20084;-57
2023/12/09 16:42:04;;;;;;;5.93;1.60;;;;;;;18.32;55.60;98915.16;10407005;28;20824;-57
2023/12/09 16:47:05;;;;;;;6.63;1.67;;;;;;;18.53;54.93;98894.34;10402789;28;20800;-57
2023/12/09 16:52:05;;;;;;;8.25;2.85;;;;;;;18.58;56.14;98872.63;10394057;28;20095;-56
2023/12/09 16:57:05;;;;;;;5.47;2.25;;;;;;;18.47;56.15;98881.47;10393137;28;20014;-57
2023/12/09 17:02:06;;;;;;;12.05;2.67;;;;;;;18.56;55.57;98896.34;10400451;28;20048;-56
2023/12/09 17:07:06;;;;;;;8.87;1.80;;;;;;;18.36;61.01;98871.25;10410384;28;20025;-56
2023/12/09 17:12:07;;;;;;;7.13;2.20;;;;;;;18.23;59.29;98871.56;10415606;28;20344;-52
2023/12/09 17:17:08;;;;;;;17.35;2.65;;;;;;;18.09;58.81;98850.47;10414894;28;20025;-57
2023/12/09 17:22:08;;;;;;;8.30;1.75;;;;;;;18.08;59.65;98849.69;10415312;28;20468;-56
2023/12/09 17:27:10;;;;;;;8.88;2.22;;;;;;;17.95;59.85;98856.19;10413962;28;20021;-57
2023/12/09 17:32:11;;;;;;;9.32;1.98;;;;;;;17.91;60.36;98868.72;10411823;28;20142;-54
2023/12/09 17:37:11;;;;;;;19.98;2.63;;;;;;;17.90;60.39;98856.44;10414251;28;20130;-55
2023/12/09 17:42:12;;;;;;;6.85;1.90;;;;;;;17.81;59.29;98851.16;10414252;28;20018;-56
2023/12/09 17:47:12;;;;;;;8.73;2.53;;;;;;;17.82;59.68;98855.41;10414682;28;20519;-58
2023/12/09 17:52:13;;;;;;;7.43;1.73;;;;;;;17.80;60.87;98857.66;10413242;28;20032;-55
2023/12/09 17:57:14;;;;;;;11.90;1.70;;;;;;;17.73;59.46;98841.31;10404302;28;20112;-57
2023/12/09 18:02:14;;;;;;;10.70;1.98;;;;;;;17.65;59.87;98849.47;10411671;28;20468;-56
2023/12/09 18:07:15;;;;;;;7.20;1.27;;;;;;;17.59;59.96;98862.28;10410967;28;20018;-57
2023/12/09 18:12:16;;;;;;;10.88;1.48;;;;;;;17.47;61.18;98844.28;10410499;28;20104;-57
2023/12/09 18:17:16;;;;;;;5.68;1.65;;;;;;;17.48;60.78;98848.53;10410645;28;20113;-58
2023/12/09 18:22:17;;;;;;;9.65;1.60;;;;;;;17.42;60.00;98849.09;10409570;28;20399;-57
2023/12/09 18:27:17;;;;;;;6.75;1.73;;;;;;;17.39;60.55;98845.16;10411193;28;20061;-57
2023/12/09 18:32:17;;;;;;;8.63;1.70;;;;;;;17.29;59.45;98858.22;10409031;28;20042;-56
2023/12/09 18:37:20;;;;;;;6.07;1.30;;;;;;;17.40;60.37;98862.03;10409933;28;20021;-57
2023/12/09 18:42:20;;;;;;;7.05;1.20;;;;;;;17.35;59.16;98859.56;10406702;28;20064;-57
2023/12/09 18:47:21;;;;;;;8.80;1.17;;;;;;;17.46;60.25;98866.84;10407943;28;20430;-59
2023/12/09 18:52:21;;;;;;;9.13;2.53;;;;;;;17.49;59.03;98863.50;10406902;28;20370;-59
2023/12/09 18:57:21;;;;;;;6.50;1.92;;;;;;;17.38;59.92;98864.25;10391234;28;20021;-60
2023/12/09 19:02:22;;;;;;;5.72;1.30;;;;;;;17.35;59.96;98875.66;10408097;28;20392;-59
2023/12/09 19:07:23;;;;;;;5.40;1.15;;;;;;;17.38;58.09;98883.00;10408289;28;20025;-60
2023/12/09 19:12:24;;;;;;;8.68;4.03;;;;;;;17.49;59.16;98892.97;10399623;28;20052;-59
2023/12/09 19:17:24;;;;;;;6.95;1.38;;;;;;;17.57;57.79;98909.28;10398034;28;20405;-59
2023/12/09 19:22:24;;;;;;;8.05;2.08;;;;;;;17.58;58.92;98927.72;10377965;28;20034;-58
2023/12/09 19:27:25;;;;;;;5.00;1.38;;;;;;;17.62;57.99;98949.28;10374924;28;20036;-59
2023/12/09 19:32:26;;;;;;;7.75;1.75;;;;;;;17.58;58.80;98946.47;10401671;28;20087;-57
2023/12/09 19:37:27;;;;;;;4.15;1.35;;;;;;;17.61;57.88;98964.56;10401435;28;20033;-56
2023/12/09 19:42:27;;;;;;;5.78;1.90;;;;;;;17.66;59.00;98975.09;10390448;28;20504;-56
2023/12/09 19:47:27;;;;;;;5.72;1.40;;;;;;;17.66;58.29;98991.19;10383865;28;20543;-58
2023/12/09 19:52:28;;;;;;;9.27;1.48;;;;;;;17.62;58.99;98998.28;10391305;28;20022;-58
2023/12/09 19:57:29;;;;;;;4.53;1.65;;;;;;;17.67;58.45;99014.19;10391685;28;20041;-57
2023/12/09 20:02:29;;;;;;;9.50;2.20;;;;;;;17.68;58.62;99014.97;10398276;28;20449;-58
2023/12/09 20:07:30;;;;;;;4.65;2.08;;;;;;;17.70;57.81;99032.31;10407817;28;20021;-58
2023/12/09 20:12:30;;;;;;;7.57;1.60;;;;;;;17.69;58.27;99052.19;10402137;28;20040;-58
2023/12/09 20:17:30;;;;;;;9.38;1.63;;;;;;;17.66;58.55;99060.88;10406967;28;20035;-57
2023/12/09 20:22:32;;;;;;;6.13;1.67;;;;;;;17.60;58.16;99086.28;10408308;28;20060;-57
2023/12/09 20:27:32;;;;;;;3.72;1.52;;;;;;;17.52;58.87;99097.84;10408706;28;20035;-59
2023/12/09 20:32:33;;;;;;;7.95;1.80;;;;;;;17.43;58.11;99099.84;10391048;28;20722;-58
2023/12/09 20:37:33;;;;;;;7.30;1.70;;;;;;;17.34;57.58;99110.59;10408638;28;20039;-57
2023/12/09 20:42:33;;;;;;;5.45;2.25;;;;;;;17.31;58.63;99118.53;10408641;28;20065;-59
2023/12/09 20:47:34;;;;;;;7.50;2.00;;;;;;;17.24;57.77;99130.53;10408551;28;20108;-57
2023/12/09 20:52:35;;;;;;;4.57;2.00;;;;;;;17.18;58.03;99147.91;10407371;28;20022;-57
2023/12/09 20:57:35;;;;;;;5.50;2.08;;;;;;;17.13;59.19;99153.44;10408273;28;20025;-57
2023/12/09 21:02:36;;;;;;;4.60;1.30;;;;;;;17.09;59.43;99167.78;10408633;28;20025;-57
2023/12/09 21:07:37;;;;;;;4.72;1.88;;;;;;;17.04;59.59;99178.66;10408189;28;20063;-58
2023/12/09 21:12:37;;;;;;;5.70;1.10;;;;;;;17.01;58.37;99179.31;10408318;28;20032;-57
2023/12/09 21:17:37;;;;;;;7.05;1.45;;;;;;;16.96;58.12;99180.31;10408090;28;20029;-58
2023/12/09 21:22:38;;;;;;;5.82;1.80;;;;;;;16.94;58.24;99199.38;10408420;28;20025;-58
2023/12/09 21:27:38;;;;;;;5.75;1.70;;;;;;;16.91;58.43;99212.59;10408028;28;20033;-58
2023/12/09 21:32:39;;;;;;;4.50;1.15;;;;;;;16.87;58.00;99219.69;10407973;28;20095;-56
2023/12/09 21:37:42;;;;;;;4.18;1.65;;;;;;;16.82;59.19;99218.00;10407627;28;20056;-57
2023/12/09 21:42:43;;;;;;;6.55;1.70;;;;;;;16.79;58.23;99231.22;10407775;28;20032;-57
2023/12/09 21:47:43;;;;;;;6.32;1.90;;;;;;;16.76;58.55;99245.22;10407404;28;20508;-57
2023/12/09 21:52:44;;;;;;;6.53;2.58;;;;;;;16.72;59.09;99260.38;10406627;28;20029;-58
2023/12/09 21:57:45;;;;;;;4.05;1.50;;;;;;;16.69;58.42;99285.06;10414945;28;20092;-57
2023/12/09 22:02:45;;;;;;;11.95;2.00;;;;;;;16.65;59.54;99300.94;10414872;28;20124;-58
2023/12/09 22:07:46;;;;;;;6.10;1.50;;;;;;;16.62;59.06;99313.09;10414138;28;20025;-58
2023/12/09 22:12:46;;;;;;;5.72;2.05;;;;;;;16.60;59.06;99338.59;10414352;28;20048;-58
2023/12/09 22:17:46;;;;;;;5.38;1.58;;;;;;;16.58;58.67;99343.47;10413524;28;20021;-58
2023/12/09 22:22:47;;;;;;;5.78;1.40;;;;;;;16.56;59.40;99340.31;10412591;28;20021;-58
2023/12/09 22:27:47;;;;;;;5.20;1.83;;;;;;;16.53;59.28;99354.31;10413433;28;20029;-59
2023/12/09 22:32:48;;;;;;;4.50;1.60;;;;;;;16.50;59.64;99368.34;10413117;28;20103;-59
2023/12/09 22:37:48;;;;;;;5.15;1.80;;;;;;;16.47;59.18;99383.13;10413085;28;20053;-58
2023/12/09 22:42:49;;;;;;;5.47;2.17;;;;;;;16.45;58.46;99387.19;10412835;28;20026;-58
2023/12/09 22:47:49;;;;;;;6.22;1.33;;;;;;;16.43;59.00;99392.06;10412439;28;20084;-59
2023/12/09 22:52:49;;;;;;;2.83;1.08;;;;;;;16.41;59.38;99408.44;10411407;28;20026;-59
2023/12/09 22:57:50;;;;;;;5.38;2.00;;;;;;;16.39;58.46;99413.31;10412123;28;20029;-59
2023/12/09 23:02:50;;;;;;;7.18;2.05;;;;;;;16.35;59.83;99426.53;10412186;28;20037;-57
2023/12/09 23:07:50;;;;;;;4.30;2.20;;;;;;;16.36;58.64;99436.13;10411522;28;20094;-57